Time;durP1;ratioP1;P1;durP2;ratioP2;P2;SDS_P1;SDS_P2;PMS_P1;PMS_P2;Temp;Humidity;BMP_temperature;BMP_pressure;BME280_temperature;BME280_humidity;BME280_pressure;Samples;Min_cycle;Max_cycle;Signal;HPM_P1;HPM_P2
2024/04/08 00:00:25;;;;;;;7.97;3.27;;;19.70;57.30;;;;;;5032578;28;20483;-78
2024/04/08 00:02:51;;;;;;;11.70;3.63;;;19.60;57.60;;;;;;5034378;28;20473;-78
2024/04/08 00:05:18;;;;;;;10.50;4.47;;;19.60;58.00;;;;;;5042842;28;20199;-78
2024/04/08 00:07:44;;;;;;;16.07;3.20;;;19.60;58.20;;;;;;5029385;28;20440;-80
2024/04/08 00:10:10;;;;;;;10.10;3.67;;;19.60;58.20;;;;;;5023224;28;20460;-80
2024/04/08 00:12:44;;;;;;;11.23;3.60;;;19.50;58.10;;;;;;5017183;28;20461;-79
2024/04/08 00:15:11;;;;;;;12.90;3.40;;;19.50;58.20;;;;;;5018878;28;20462;-78
2024/04/08 00:17:40;;;;;;;8.07;2.63;;;19.50;58.20;;;;;;5019417;28;20434;-81
2024/04/08 00:20:06;;;;;;;12.00;3.37;;;19.50;58.40;;;;;;5019560;28;20486;-79
2024/04/08 00:22:31;;;;;;;10.67;3.37;;;19.40;58.40;;;;;;5019869;28;20514;-80
2024/04/08 00:24:57;;;;;;;10.30;3.20;;;19.40;58.50;;;;;;5023712;28;20454;-78
2024/04/08 00:27:23;;;;;;;10.47;3.47;;;19.30;58.50;;;;;;5024984;28;20262;-80
2024/04/08 00:29:49;;;;;;;10.90;2.87;;;19.20;58.70;;;;;;5029308;28;21020;-78
2024/04/08 00:32:15;;;;;;;11.27;3.47;;;19.10;58.50;;;;;;5015904;28;20203;-77
2024/04/08 00:34:41;;;;;;;9.93;3.20;;;19.10;58.90;;;;;;5012584;28;20210;-78
2024/04/08 00:37:07;;;;;;;13.00;3.23;;;19.10;58.80;;;;;;5009017;28;20504;-77
2024/04/08 00:39:34;;;;;;;10.77;3.53;;;19.30;58.10;;;;;;5019336;28;20469;-77
2024/04/08 00:42:00;;;;;;;14.03;4.10;;;19.30;58.80;;;;;;5011811;28;20560;-79
2024/04/08 00:44:26;;;;;;;8.93;3.33;;;19.20;59.30;;;;;;5018214;28;20938;-78
2024/04/08 00:46:53;;;;;;;10.70;4.00;;;19.00;59.90;;;;;;5021718;28;20441;-78
2024/04/08 00:49:20;;;;;;;8.07;3.60;;;19.00;60.10;;;;;;5011922;28;20437;-79
2024/04/08 00:51:46;;;;;;;9.70;3.57;;;18.90;60.40;;;;;;5014529;28;20463;-79
2024/04/08 00:54:11;;;;;;;7.93;3.00;;;18.80;60.70;;;;;;5016473;28;20425;-77
2024/04/08 00:56:38;;;;;;;12.53;3.80;;;18.80;60.90;;;;;;5015852;28;20285;-79
2024/04/08 00:59:06;;;;;;;6.50;3.33;;;18.80;60.00;;;;;;5011325;28;20599;-79
2024/04/08 01:01:33;;;;;;;12.33;3.20;;;18.80;60.30;;;;;;5007804;28;20600;-77
2024/04/08 01:03:58;;;;;;;6.90;3.10;;;18.90;60.40;;;;;;5009323;28;20429;-79
2024/04/08 01:06:24;;;;;;;14.50;3.50;;;18.90;60.00;;;;;;5014299;28;20489;-79
2024/04/08 01:08:50;;;;;;;9.50;3.50;;;18.80;59.60;;;;;;5012547;28;20203;-79
2024/04/08 01:11:16;;;;;;;8.77;3.40;;;18.80;60.40;;;;;;5011735;28;20210;-79
2024/04/08 01:13:42;;;;;;;9.60;3.97;;;18.80;60.90;;;;;;5015984;28;20455;-80
2024/04/08 01:16:07;;;;;;;14.33;3.93;;;18.80;60.90;;;;;;5011180;28;20448;-78
2024/04/08 01:18:33;;;;;;;16.30;4.00;;;18.70;61.20;;;;;;5014698;28;20256;-77
2024/04/08 01:21:02;;;;;;;15.80;3.87;;;18.70;61.30;;;;;;5019271;28;20659;-79
2024/04/08 01:23:29;;;;;;;9.50;4.00;;;18.70;61.00;;;;;;5019233;28;20432;-78
2024/04/08 01:25:55;;;;;;;8.30;3.23;;;18.60;61.30;;;;;;5012738;28;20949;-79
2024/04/08 01:28:21;;;;;;;18.00;3.93;;;18.60;61.50;;;;;;5013846;28;20822;-79
2024/04/08 01:30:49;;;;;;;12.83;3.57;;;18.60;61.50;;;;;;5015380;28;20432;-78
2024/04/08 01:33:15;;;;;;;9.83;3.30;;;18.60;61.50;;;;;;5012744;28;20298;-78
2024/04/08 01:35:41;;;;;;;14.97;4.23;;;18.60;61.50;;;;;;5021774;28;20521;-78
2024/04/08 01:38:07;;;;;;;18.90;3.80;;;18.60;61.50;;;;;;5015317;28;20479;-78
2024/04/08 01:40:32;;;;;;;7.63;3.07;;;18.60;61.60;;;;;;5012888;28;20189;-80
2024/04/08 01:42:58;;;;;;;11.03;3.73;;;18.70;61.50;;;;;;5013870;28;20206;-78
2024/04/08 01:45:24;;;;;;;13.43;4.27;;;18.90;61.30;;;;;;5018561;28;20204;-79
2024/04/08 01:47:50;;;;;;;7.47;3.10;;;18.80;61.30;;;;;;5019979;28;20445;-79
2024/04/08 01:50:15;;;;;;;11.00;3.90;;;18.80;61.50;;;;;;5017262;28;20193;-78
2024/04/08 01:52:41;;;;;;;14.00;3.60;;;18.70;61.70;;;;;;5016867;28;20212;-79
2024/04/08 01:55:07;;;;;;;9.30;3.70;;;18.60;62.00;;;;;;5019660;28;20178;-78
2024/04/08 01:57:33;;;;;;;12.80;3.53;;;18.60;61.60;;;;;;5020304;28;20182;-78
2024/04/08 01:59:58;;;;;;;25.13;8.60;;;18.50;61.30;;;;;;5015800;28;20541;-79
2024/04/08 02:02:24;;;;;;;20.57;4.73;;;18.40;61.20;;;;;;5012649;28;20221;-78
2024/04/08 02:04:50;;;;;;;20.50;8.53;;;18.30;60.70;;;;;;5015773;28;20456;-79
2024/04/08 02:07:16;;;;;;;18.20;5.50;;;18.30;61.30;;;;;;5019094;28;20189;-77
2024/04/08 02:09:41;;;;;;;16.23;6.30;;;18.30;61.30;;;;;;5024302;28;20200;-78
2024/04/08 02:12:07;;;;;;;13.83;6.00;;;18.40;61.60;;;;;;5012176;28;20202;-75
2024/04/08 02:14:33;;;;;;;16.67;5.73;;;18.50;61.70;;;;;;5013840;28;20681;-77
2024/04/08 02:16:58;;;;;;;16.80;5.30;;;18.50;61.60;;;;;;5025730;28;20596;-76
2024/04/08 02:19:27;;;;;;;12.70;5.17;;;18.50;61.90;;;;;;5023000;28;20185;-78
2024/04/08 02:21:53;;;;;;;10.97;4.73;;;18.40;61.90;;;;;;5023192;28;20223;-79
2024/04/08 02:24:19;;;;;;;13.40;3.93;;;18.30;62.30;;;;;;5032403;28;20424;-81
2024/04/08 02:26:45;;;;;;;9.57;3.47;;;18.40;61.90;;;;;;5021836;28;20500;-81
2024/04/08 02:29:11;;;;;;;9.43;3.47;;;18.40;61.50;;;;;;5016201;28;20848;-79
2024/04/08 02:31:37;;;;;;;12.07;3.87;;;18.30;61.90;;;;;;5017548;28;20211;-80
2024/04/08 02:34:02;;;;;;;7.53;3.23;;;18.20;61.90;;;;;;5020808;28;20415;-83
2024/04/08 02:36:28;;;;;;;11.40;3.80;;;18.10;62.00;;;;;;5023900;28;20916;-81
2024/04/08 02:38:54;;;;;;;12.90;3.93;;;18.10;62.30;;;;;;5018687;28;20203;-82
2024/04/08 02:41:21;;;;;;;14.50;4.43;;;18.00;62.30;;;;;;5027504;28;20221;-80
2024/04/08 02:43:47;;;;;;;6.93;3.13;;;17.90;62.20;;;;;;5022320;28;20437;-81
2024/04/08 02:46:13;;;;;;;19.20;4.63;;;17.90;62.20;;;;;;5024134;28;20948;-81
2024/04/08 02:48:39;;;;;;;16.37;4.33;;;17.90;62.00;;;;;;5024605;28;20513;-77
2024/04/08 02:51:07;;;;;;;6.83;2.93;;;18.00;62.00;;;;;;5022065;28;20474;-77
2024/04/08 02:53:34;;;;;;;9.43;3.23;;;18.00;62.50;;;;;;5021211;28;20185;-78
2024/04/08 02:56:06;;;;;;;11.20;3.43;;;18.00;62.90;;;;;;5022721;28;20428;-79
2024/04/08 02:58:32;;;;;;;9.13;3.50;;;17.90;62.90;;;;;;5024687;28;20419;-78
2024/04/08 03:01:07;;;;;;;12.07;3.00;;;17.90;62.90;;;;;;5022462;28;20494;-78
2024/04/08 03:03:33;;;;;;;10.33;2.93;;;17.90;63.10;;;;;;5022870;28;20481;-78
2024/04/08 03:06:15;;;;;;;10.03;3.57;;;17.70;63.50;;;;;;5023125;28;20429;-79
2024/04/08 03:08:42;;;;;;;10.40;3.27;;;17.70;63.80;;;;;;5018507;28;20195;-78
2024/04/08 03:11:08;;;;;;;15.47;4.00;;;17.60;63.80;;;;;;5014437;28;20930;-81
2024/04/08 03:13:36;;;;;;;7.03;3.37;;;17.50;64.10;;;;;;5015977;28;20420;-80
2024/04/08 03:16:02;;;;;;;9.53;3.03;;;17.40;64.40;;;;;;5012884;28;20456;-79
2024/04/08 03:18:28;;;;;;;18.27;3.50;;;17.40;64.40;;;;;;5013606;28;20942;-79
2024/04/08 03:20:59;;;;;;;13.10;3.70;;;17.40;64.40;;;;;;5013158;28;20207;-78
2024/04/08 03:23:25;;;;;;;13.97;3.20;;;17.40;64.40;;;;;;5020587;28;20420;-78
2024/04/08 03:26:05;;;;;;;13.40;4.07;;;17.30;64.40;;;;;;5025037;28;20427;-80
2024/04/08 03:28:31;;;;;;;11.50;3.57;;;17.30;64.50;;;;;;5022101;28;20456;-79
2024/04/08 03:30:57;;;;;;;9.87;3.03;;;17.20;64.80;;;;;;5019637;28;20472;-79
2024/04/08 03:33:25;;;;;;;13.03;3.90;;;17.10;64.80;;;;;;5018102;28;20205;-79
2024/04/08 03:35:51;;;;;;;10.40;3.83;;;16.90;65.00;;;;;;5024951;28;20958;-79
2024/04/08 03:38:17;;;;;;;11.50;3.67;;;16.90;65.00;;;;;;5032831;28;20429;-79
2024/04/08 03:40:44;;;;;;;13.07;3.63;;;16.90;65.00;;;;;;5020601;28;20550;-79
2024/04/08 03:43:09;;;;;;;15.37;3.23;;;17.00;65.00;;;;;;5019750;28;20257;-79
2024/04/08 03:45:37;;;;;;;7.60;3.20;;;17.00;64.70;;;;;;5026724;28;20435;-78
2024/04/08 03:48:03;;;;;;;10.00;3.47;;;16.90;64.70;;;;;;5026660;28;20213;-79
2024/04/08 03:50:30;;;;;;;11.97;3.97;;;16.90;65.00;;;;;;5037313;28;20504;-77
2024/04/08 03:52:56;;;;;;;12.50;4.13;;;16.90;64.80;;;;;;5025833;28;20448;-78
2024/04/08 03:55:29;;;;;;;6.23;3.40;;;16.90;64.40;;;;;;5023752;28;20413;-79
2024/04/08 03:57:56;;;;;;;9.30;3.50;;;16.80;64.70;;;;;;5018136;28;20444;-79
2024/04/08 04:00:22;;;;;;;17.90;3.80;;;16.80;65.00;;;;;;5026011;28;20521;-77
2024/04/08 04:02:48;;;;;;;9.27;3.13;;;16.90;64.50;;;;;;5016562;28;20467;-77
2024/04/08 04:05:15;;;;;;;10.13;4.10;;;16.90;64.40;;;;;;5027803;28;20432;-79
2024/04/08 04:07:41;;;;;;;10.73;3.50;;;16.80;64.50;;;;;;5021487;28;20855;-78
2024/04/08 04:10:08;;;;;;;10.67;3.27;;;16.70;64.70;;;;;;5012619;28;20458;-78
2024/04/08 04:12:38;;;;;;;15.40;4.60;;;16.70;64.80;;;;;;5012589;28;20221;-78
2024/04/08 04:15:12;;;;;;;9.47;4.23;;;16.80;64.50;;;;;;5022731;28;20926;-79
2024/04/08 04:17:41;;;;;;;9.83;3.33;;;16.90;64.20;;;;;;5018528;28;20431;-79
2024/04/08 04:20:12;;;;;;;7.77;3.50;;;16.80;64.40;;;;;;5019179;28;20456;-78
2024/04/08 04:22:38;;;;;;;9.90;3.37;;;16.70;65.00;;;;;;5017894;28;20465;-78
2024/04/08 04:25:04;;;;;;;10.80;3.90;;;16.60;65.30;;;;;;5020807;28;20484;-77
2024/04/08 04:27:29;;;;;;;12.53;3.33;;;16.70;64.80;;;;;;5017906;28;20257;-77
2024/04/08 04:29:55;;;;;;;13.70;3.70;;;16.60;65.30;;;;;;5015009;28;20437;-78
2024/04/08 04:32:21;;;;;;;13.83;4.30;;;16.70;64.80;;;;;;5010546;28;20228;-78
2024/04/08 04:34:49;;;;;;;11.90;4.00;;;16.70;64.50;;;;;;5017036;28;20270;-79
2024/04/08 04:37:15;;;;;;;11.63;4.10;;;16.60;65.00;;;;;;5019029;28;20273;-79
2024/04/08 04:39:41;;;;;;;14.27;3.60;;;16.50;65.00;;;;;;5016838;28;20468;-78
2024/04/08 04:42:06;;;;;;;10.37;4.03;;;16.50;65.00;;;;;;5016772;28;20224;-80
2024/04/08 04:44:33;;;;;;;10.53;3.33;;;16.50;65.30;;;;;;5011264;28;20205;-80
2024/04/08 04:46:59;;;;;;;10.87;3.57;;;16.50;65.30;;;;;;5011642;28;20183;-80
2024/04/08 04:49:25;;;;;;;12.00;4.17;;;16.50;65.10;;;;;;5014871;28;20929;-80
2024/04/08 04:51:51;;;;;;;14.23;3.80;;;16.60;64.70;;;;;;5023361;28;20451;-81
2024/04/08 04:54:19;;;;;;;11.03;3.77;;;16.70;65.00;;;;;;5018899;28;20693;-79
2024/04/08 04:56:46;;;;;;;11.27;4.10;;;16.70;65.30;;;;;;5025242;28;20186;-79
2024/04/08 04:59:12;;;;;;;6.20;3.10;;;16.60;65.60;;;;;;5021365;28;20448;-78
2024/04/08 05:01:38;;;;;;;16.37;4.90;;;16.60;65.70;;;;;;5016029;28;20702;-79
2024/04/08 05:04:04;;;;;;;11.40;3.90;;;16.50;66.00;;;;;;5021863;28;20258;-78
2024/04/08 05:06:30;;;;;;;12.00;3.87;;;16.50;65.80;;;;;;5018929;28;20617;-77
2024/04/08 05:08:58;;;;;;;13.60;3.93;;;16.40;65.80;;;;;;5017185;28;20425;-80
2024/04/08 05:11:24;;;;;;;13.33;4.20;;;16.40;66.00;;;;;;5028733;28;20503;-78
2024/04/08 05:13:49;;;;;;;14.00;3.20;;;16.40;65.80;;;;;;5024507;28;20426;-75
2024/04/08 05:16:15;;;;;;;12.60;3.90;;;16.50;65.60;;;;;;5009649;28;20214;-75
2024/04/08 05:18:40;;;;;;;16.87;4.27;;;16.60;65.40;;;;;;5002477;28;20187;-73
2024/04/08 05:21:09;;;;;;;13.23;3.50;;;16.60;65.60;;;;;;5005898;28;20224;-73
2024/04/08 05:23:35;;;;;;;11.33;4.20;;;16.60;65.70;;;;;;5005704;28;20217;-74
2024/04/08 05:26:01;;;;;;;11.10;4.13;;;16.50;66.00;;;;;;5017262;28;20451;-74
2024/04/08 05:28:26;;;;;;;13.53;3.83;;;16.50;66.10;;;;;;5007171;28;20891;-75
2024/04/08 05:30:52;;;;;;;9.90;3.57;;;16.50;66.00;;;;;;5001921;28;20456;-76
2024/04/08 05:33:18;;;;;;;9.07;3.47;;;16.50;65.60;;;;;;4997491;28;20545;-75
2024/04/08 05:35:44;;;;;;;13.63;3.83;;;16.60;65.70;;;;;;5003479;28;20504;-76
2024/04/08 05:38:10;;;;;;;10.43;3.63;;;16.50;65.70;;;;;;5006227;28;20179;-74
2024/04/08 05:40:40;;;;;;;10.17;3.50;;;16.60;65.70;;;;;;5003709;28;20452;-74
2024/04/08 05:43:06;;;;;;;7.37;3.57;;;16.60;65.80;;;;;;5005043;28;20886;-75
2024/04/08 05:45:32;;;;;;;9.50;3.90;;;16.60;65.80;;;;;;5009288;28;20429;-75
2024/04/08 05:47:58;;;;;;;10.73;4.10;;;16.70;66.00;;;;;;5015433;28;20418;-74
2024/04/08 05:50:24;;;;;;;8.30;4.00;;;16.80;65.70;;;;;;5009608;28;20427;-75
2024/04/08 05:52:51;;;;;;;10.23;4.40;;;16.80;65.60;;;;;;5008049;28;20219;-74
2024/04/08 05:57:28;;;;;;;8.50;3.63;;;16.90;65.40;;;;;;5476057;25;20664;-80
2024/04/08 05:59:53;;;;;;;22.70;4.17;;;16.80;65.60;;;;;;5404676;26;20463;-78
2024/04/08 06:02:19;;;;;;;14.33;3.60;;;16.90;65.70;;;;;;5395680;26;20944;-77
2024/04/08 06:04:45;;;;;;;13.83;3.90;;;16.90;65.70;;;;;;5395703;26;20242;-78
2024/04/08 06:07:11;;;;;;;12.20;4.20;;;16.90;65.80;;;;;;5393665;26;20595;-78
2024/04/08 06:09:38;;;;;;;14.83;4.60;;;17.00;65.80;;;;;;5397107;26;20464;-77
2024/04/08 06:12:04;;;;;;;14.03;4.33;;;17.10;65.80;;;;;;5394172;26;20476;-79
2024/04/08 06:14:29;;;;;;;16.57;4.87;;;17.10;65.70;;;;;;5393528;26;20480;-77
2024/04/08 06:16:58;;;;;;;14.03;3.90;;;17.10;65.80;;;;;;5356610;26;20580;-79
2024/04/08 06:19:24;;;;;;;14.43;4.83;;;17.20;65.70;;;;;;5382411;26;20730;-77
2024/04/08 06:21:50;;;;;;;10.27;4.33;;;17.30;65.70;;;;;;5395860;26;20541;-78
2024/04/08 06:24:16;;;;;;;13.80;4.67;;;17.30;65.60;;;;;;5392128;26;20543;-79
2024/04/08 06:26:41;;;;;;;12.43;4.47;;;17.30;65.60;;;;;;5407189;26;20238;-77
2024/04/08 06:29:07;;;;;;;15.93;5.13;;;17.40;65.60;;;;;;5405135;26;20243;-79
2024/04/08 06:31:33;;;;;;;13.33;4.73;;;17.40;65.70;;;;;;5394449;26;20359;-79
2024/04/08 06:33:59;;;;;;;14.47;5.17;;;17.50;64.80;;;;;;5390984;26;20252;-80
2024/04/08 06:36:25;;;;;;;10.63;3.73;;;17.50;64.70;;;;;;5398662;26;20286;-79
2024/04/08 06:38:51;;;;;;;20.20;4.83;;;17.50;64.40;;;;;;5389218;26;20458;-79
2024/04/08 06:41:18;;;;;;;12.47;4.17;;;17.50;64.70;;;;;;5388469;26;20476;-78
2024/04/08 06:43:46;;;;;;;15.77;4.20;;;17.60;63.70;;;;;;5400479;26;20477;-81
2024/04/08 06:46:11;;;;;;;10.00;4.40;;;17.70;63.40;;;;;;5392173;26;20461;-78
2024/04/08 06:48:37;;;;;;;14.27;4.70;;;17.80;63.20;;;;;;5392868;26;20458;-78
2024/04/08 06:51:04;;;;;;;8.40;4.03;;;17.90;62.60;;;;;;5404739;26;20260;-78
2024/04/08 06:53:29;;;;;;;11.63;4.03;;;18.10;62.30;;;;;;5414939;26;20243;-77
2024/04/08 06:55:55;;;;;;;14.73;4.37;;;18.10;62.00;;;;;;5400404;26;20528;-80
2024/04/08 06:58:23;;;;;;;13.90;4.10;;;18.10;61.90;;;;;;5402170;26;20253;-78
2024/04/08 07:00:50;;;;;;;10.67;4.50;;;18.10;62.30;;;;;;5390492;26;20260;-80
2024/04/08 07:03:16;;;;;;;19.93;4.70;;;18.20;62.30;;;;;;5404475;26;21072;-78
2024/04/08 07:05:42;;;;;;;11.60;3.80;;;18.30;61.70;;;;;;5413776;26;20470;-78
2024/04/08 07:08:07;;;;;;;30.00;4.80;;;18.40;61.60;;;;;;5381691;26;20339;-79
2024/04/08 07:10:36;;;;;;;13.20;3.63;;;18.40;61.30;;;;;;5393269;26;20281;-79
2024/04/08 07:13:02;;;;;;;16.70;4.17;;;18.40;61.30;;;;;;5380195;26;20401;-78
2024/04/08 07:15:28;;;;;;;11.20;4.10;;;18.60;60.70;;;;;;5401504;26;20457;-79
2024/04/08 07:17:54;;;;;;;12.63;4.50;;;18.70;61.30;;;;;;5386502;26;20539;-79
2024/04/08 07:20:20;;;;;;;10.80;4.17;;;18.70;61.60;;;;;;5386853;26;20863;-78
2024/04/08 07:22:46;;;;;;;7.60;3.73;;;18.90;61.90;;;;;;5370542;26;20295;-78
2024/04/08 07:25:12;;;;;;;6.83;3.47;;;19.00;61.90;;;;;;5374574;26;20275;-78
2024/04/08 07:27:38;;;;;;;12.87;4.00;;;19.10;61.70;;;;;;5383037;26;20573;-79
2024/04/08 07:30:04;;;;;;;11.23;4.20;;;19.20;61.30;;;;;;5375097;26;20478;-77
2024/04/08 07:32:31;;;;;;;10.13;3.80;;;19.40;60.90;;;;;;5377421;26;20618;-78
2024/04/08 07:34:57;;;;;;;7.17;3.57;;;19.50;60.60;;;;;;5372388;26;20527;-78
2024/04/08 07:37:22;;;;;;;12.30;3.97;;;19.60;60.30;;;;;;5384419;26;20942;-77
2024/04/08 07:39:49;;;;;;;9.87;4.33;;;19.70;59.90;;;;;;5373759;26;21079;-78
2024/04/08 07:42:33;;;;;;;12.90;4.10;;;19.80;59.50;;;;;;5378795;26;20282;-78
2024/04/08 07:44:59;;;;;;;10.17;4.23;;;19.90;58.40;;;;;;5370937;26;20537;-79
2024/04/08 07:47:24;;;;;;;7.83;4.00;;;20.00;58.00;;;;;;5382877;26;20478;-77
2024/04/08 07:49:55;;;;;;;11.30;3.73;;;20.20;57.60;;;;;;5380958;26;20244;-80
2024/04/08 07:52:20;;;;;;;15.80;4.50;;;20.20;57.30;;;;;;5389975;26;20363;-78
2024/04/08 07:54:46;;;;;;;14.90;3.80;;;20.30;57.00;;;;;;5381732;26;20462;-78
2024/04/08 07:57:12;;;;;;;14.60;4.47;;;20.40;56.60;;;;;;5392220;26;20241;-79
2024/04/08 07:59:37;;;;;;;14.53;4.30;;;20.50;56.50;;;;;;5390428;26;20237;-78
2024/04/08 08:02:03;;;;;;;15.17;5.00;;;20.60;56.40;;;;;;5393750;26;20298;-78
2024/04/08 08:04:29;;;;;;;20.40;5.37;;;20.50;57.70;;;;;;5391351;26;21079;-79
2024/04/08 08:06:54;;;;;;;14.43;4.60;;;20.60;58.40;;;;;;5386925;26;20276;-80
2024/04/08 08:09:20;;;;;;;17.13;5.03;;;20.50;58.50;;;;;;5393358;26;20268;-79
2024/04/08 08:11:46;;;;;;;10.00;4.90;;;20.40;58.70;;;;;;5385842;26;20322;-79
2024/04/08 08:14:11;;;;;;;18.93;4.30;;;20.30;58.70;;;;;;5378914;26;20236;-80
2024/04/08 08:16:38;;;;;;;16.87;4.47;;;20.30;58.40;;;;;;5390330;26;20284;-78
2024/04/08 08:19:04;;;;;;;17.80;4.70;;;20.30;58.80;;;;;;5370197;26;20287;-77
2024/04/08 08:21:30;;;;;;;10.80;4.60;;;20.50;58.50;;;;;;5378511;26;20481;-79
2024/04/08 08:23:57;;;;;;;13.07;4.40;;;20.80;58.10;;;;;;5379171;26;20516;-79
2024/04/08 08:26:23;;;;;;;15.07;4.60;;;20.90;57.70;;;;;;5385727;26;20239;-79
2024/04/08 08:28:49;;;;;;;12.80;4.20;;;21.10;57.00;;;;;;5381257;26;20860;-78
2024/04/08 08:31:14;;;;;;;10.73;4.33;;;21.20;56.90;;;;;;5374668;26;20259;-78
2024/04/08 08:33:42;;;;;;;16.23;5.03;;;21.40;56.80;;;;;;5387616;26;20252;-79
2024/04/08 08:36:07;;;;;;;13.53;4.50;;;21.50;56.40;;;;;;5379707;26;20464;-78
2024/04/08 08:38:34;;;;;;;19.10;5.67;;;21.60;55.80;;;;;;5383382;26;20574;-78
2024/04/08 08:41:06;;;;;;;17.60;5.63;;;21.70;55.60;;;;;;5394145;26;20479;-77
2024/04/08 08:43:32;;;;;;;14.20;5.37;;;21.80;55.60;;;;;;5398201;26;20239;-78
2024/04/08 08:45:59;;;;;;;11.63;4.87;;;21.90;55.30;;;;;;5384617;26;20584;-80
2024/04/08 08:48:25;;;;;;;21.10;4.77;;;22.10;54.40;;;;;;5384084;26;20585;-77
2024/04/08 08:50:51;;;;;;;15.47;4.60;;;22.10;53.40;;;;;;5379610;26;20470;-78
2024/04/08 08:53:17;;;;;;;14.10;4.17;;;22.30;52.80;;;;;;5397208;26;20902;-78
2024/04/08 08:55:44;;;;;;;17.23;3.97;;;22.40;51.80;;;;;;5383707;26;20823;-78
2024/04/08 08:58:11;;;;;;;14.27;3.93;;;22.50;51.80;;;;;;5400053;26;20462;-79
2024/04/08 09:00:40;;;;;;;12.10;4.20;;;22.70;51.20;;;;;;5370434;26;20536;-79
2024/04/08 09:03:11;;;;;;;14.40;3.67;;;22.90;49.50;;;;;;5386444;26;20520;-78
2024/04/08 09:05:37;;;;;;;10.97;3.70;;;22.90;43.40;;;;;;5381742;26;20478;-77
2024/04/08 09:08:03;;;;;;;10.23;3.03;;;23.20;40.70;;;;;;5392213;26;20518;-77
2024/04/08 09:10:40;;;;;;;5.90;2.17;;;23.20;40.20;;;;;;5383748;26;20335;-78
2024/04/08 09:13:23;;;;;;;8.70;2.37;;;23.50;39.10;;;;;;5380380;26;20242;-78
2024/04/08 09:15:53;;;;;;;12.00;2.70;;;23.60;39.50;;;;;;5387329;26;20515;-78
2024/04/08 09:18:21;;;;;;;15.43;3.20;;;23.60;39.50;;;;;;5383486;26;20503;-77
2024/04/08 09:20:48;;;;;;;13.90;3.13;;;23.80;39.40;;;;;;5400521;26;20714;-79
2024/04/08 09:23:13;;;;;;;10.53;3.30;;;24.00;38.70;;;;;;5387116;26;20753;-78
2024/04/08 09:25:40;;;;;;;10.93;3.07;;;24.20;39.80;;;;;;5381881;26;20534;-77
2024/04/08 09:28:07;;;;;;;9.93;2.90;;;24.30;38.80;;;;;;5381125;26;20239;-77
2024/04/08 09:30:34;;;;;;;11.67;3.57;;;24.30;38.00;;;;;;5396536;26;20459;-78
2024/04/08 09:33:00;;;;;;;9.60;2.77;;;24.30;37.60;;;;;;5380687;26;20474;-78
2024/04/08 09:35:26;;;;;;;7.03;2.43;;;24.50;38.40;;;;;;5400610;26;20534;-79
2024/04/08 09:37:54;;;;;;;12.53;3.20;;;24.60;37.00;;;;;;5394714;26;20549;-78
2024/04/08 09:40:23;;;;;;;13.60;3.00;;;24.80;36.20;;;;;;5399765;26;20814;-79
2024/04/08 09:42:50;;;;;;;9.00;2.93;;;24.90;35.90;;;;;;5371650;26;20595;-78
2024/04/08 09:45:18;;;;;;;10.50;2.80;;;25.00;35.50;;;;;;5380566;26;20467;-79
2024/04/08 09:47:45;;;;;;;10.80;2.60;;;25.10;35.20;;;;;;5359589;26;20585;-81
2024/04/08 09:50:12;;;;;;;12.37;2.73;;;25.30;34.50;;;;;;5400753;26;20532;-79
2024/04/08 09:52:38;;;;;;;11.10;2.77;;;25.40;32.80;;;;;;5378171;26;20470;-79
2024/04/08 09:55:05;;;;;;;9.83;3.00;;;25.50;32.70;;;;;;5376130;26;20522;-79
2024/04/08 09:57:34;;;;;;;6.33;2.80;;;25.40;32.40;;;;;;5373740;26;20590;-78
2024/04/08 10:00:02;;;;;;;5.80;2.43;;;25.40;31.90;;;;;;5381155;26;20471;-78
2024/04/08 10:02:31;;;;;;;9.23;2.50;;;25.40;31.30;;;;;;5382581;26;20520;-78
2024/04/08 10:05:03;;;;;;;10.23;2.73;;;25.50;30.40;;;;;;5376412;26;20484;-78
2024/04/08 10:07:30;;;;;;;8.03;2.27;;;25.50;30.50;;;;;;5374944;26;20468;-78
2024/04/08 10:09:58;;;;;;;12.13;2.60;;;25.60;29.50;;;;;;5381964;26;20482;-80
2024/04/08 10:12:36;;;;;;;9.37;2.67;;;25.60;30.10;;;;;;5383809;26;20473;-77
2024/04/08 10:15:09;;;;;;;15.00;2.70;;;25.60;30.80;;;;;;5383540;26;20471;-78
2024/04/08 10:17:36;;;;;;;7.80;2.67;;;25.80;29.70;;;;;;5390266;26;20477;-79
2024/04/08 10:20:22;;;;;;;14.30;3.10;;;26.00;30.10;;;;;;5374852;26;20558;-78
2024/04/08 10:22:49;;;;;;;8.40;3.33;;;26.10;30.70;;;;;;5380167;26;20526;-79
2024/04/08 10:25:47;;;;;;;11.17;2.80;;;26.10;29.20;;;;;;5378499;26;20940;-79
2024/04/08 10:28:15;;;;;;;6.97;2.53;;;26.20;29.60;;;;;;5391672;26;20476;-78
2024/04/08 10:30:43;;;;;;;13.77;3.03;;;26.40;29.00;;;;;;5387831;26;20523;-79
2024/04/08 10:33:10;;;;;;;7.63;2.53;;;26.60;28.80;;;;;;5373104;26;20561;-78
2024/04/08 10:35:36;;;;;;;8.30;2.40;;;26.60;27.90;;;;;;5389400;26;20480;-79
2024/04/08 10:38:03;;;;;;;11.60;2.70;;;26.50;29.00;;;;;;5365642;26;20583;-79
2024/04/08 10:40:29;;;;;;;7.93;2.30;;;26.10;30.10;;;;;;5376884;26;20662;-78
2024/04/08 10:42:58;;;;;;;16.73;3.07;;;26.10;30.90;;;;;;5383193;26;20497;-78
2024/04/08 10:45:25;;;;;;;11.27;3.33;;;26.20;30.30;;;;;;5396697;26;20473;-81
2024/04/08 10:47:58;;;;;;;8.47;2.50;;;26.40;30.70;;;;;;5366552;26;20583;-78
2024/04/08 10:50:27;;;;;;;16.43;3.60;;;26.80;30.40;;;;;;5405745;26;20564;-80
2024/04/08 10:52:52;;;;;;;10.30;2.73;;;27.00;28.70;;;;;;5370978;26;20485;-79
2024/04/08 10:55:18;;;;;;;10.77;3.00;;;27.00;29.30;;;;;;5379898;26;20527;-79
2024/04/08 10:57:44;;;;;;;14.53;3.30;;;27.20;29.50;;;;;;5375524;26;20244;-80
2024/04/08 11:00:09;;;;;;;10.23;2.80;;;27.20;29.60;;;;;;5387727;26;20235;-80
2024/04/08 11:02:35;;;;;;;19.43;3.03;;;27.30;29.60;;;;;;5373879;26;20320;-79
2024/04/08 11:05:04;;;;;;;12.77;2.97;;;27.70;28.10;;;;;;5385570;26;20274;-78
2024/04/08 11:07:36;;;;;;;7.27;2.60;;;28.00;28.30;;;;;;5387073;26;20326;-79
2024/04/08 11:10:12;;;;;;;15.23;4.10;;;28.30;27.80;;;;;;5384960;26;20534;-78
2024/04/08 11:12:38;;;;;;;10.60;3.67;;;28.50;27.20;;;;;;5372846;26;20469;-78
2024/04/08 11:15:05;;;;;;;13.20;3.53;;;28.50;27.30;;;;;;5390724;26;20507;-77
2024/04/08 11:17:32;;;;;;;13.03;3.50;;;28.80;27.70;;;;;;5378850;26;20246;-78
2024/04/08 11:19:58;;;;;;;10.60;3.07;;;29.10;25.90;;;;;;5382184;26;20473;-78
2024/04/08 11:22:25;;;;;;;7.70;3.47;;;29.40;25.60;;;;;;5395605;26;20579;-79
2024/04/08 11:24:51;;;;;;;15.60;3.20;;;29.70;25.20;;;;;;5386273;26;20529;-79
2024/04/08 11:27:17;;;;;;;14.03;3.77;;;29.90;24.90;;;;;;5391660;26;20550;-80
2024/04/08 11:29:45;;;;;;;6.93;2.70;;;30.20;24.70;;;;;;5380954;26;20462;-81
2024/04/08 11:32:14;;;;;;;12.17;2.37;;;30.10;24.50;;;;;;5379827;26;20277;-79
2024/04/08 11:34:43;;;;;;;11.93;3.00;;;30.00;24.70;;;;;;5377044;26;20530;-79
2024/04/08 11:37:10;;;;;;;8.07;2.90;;;29.90;25.10;;;;;;5379090;26;20660;-79
2024/04/08 11:39:42;;;;;;;17.47;3.20;;;30.00;24.90;;;;;;5371383;26;20518;-80
2024/04/08 11:42:08;;;;;;;14.57;3.30;;;29.70;25.60;;;;;;5370749;26;20478;-78
2024/04/08 11:44:36;;;;;;;9.20;2.70;;;29.80;25.50;;;;;;5373936;26;20463;-79
2024/04/08 11:47:02;;;;;;;14.93;3.40;;;29.90;26.50;;;;;;5398144;26;20472;-79
2024/04/08 11:49:30;;;;;;;11.93;3.03;;;30.10;25.90;;;;;;5394160;26;20530;-79
2024/04/08 11:51:56;;;;;;;13.73;3.27;;;30.30;26.30;;;;;;5385459;26;20494;-79
2024/04/08 11:54:22;;;;;;;13.40;2.87;;;30.40;26.00;;;;;;5369380;26;20467;-78
2024/04/08 11:56:47;;;;;;;9.20;3.03;;;30.60;26.80;;;;;;5370289;26;20853;-78
2024/04/08 11:59:13;;;;;;;16.30;3.40;;;30.80;26.10;;;;;;5381897;26;20286;-79
2024/04/08 12:01:41;;;;;;;15.60;2.67;;;31.20;25.50;;;;;;5364744;26;20260;-79
2024/04/08 12:04:06;;;;;;;11.20;3.10;;;31.50;25.40;;;;;;5378488;26;20266;-79
2024/04/08 12:06:32;;;;;;;7.93;2.70;;;31.50;25.20;;;;;;5364595;26;20459;-78
2024/04/08 12:08:58;;;;;;;14.97;3.60;;;31.50;25.40;;;;;;5375061;26;20309;-79
2024/04/08 12:11:24;;;;;;;15.07;3.03;;;31.40;26.40;;;;;;5368273;26;20964;-81
2024/04/08 12:13:52;;;;;;;12.50;3.43;;;31.60;25.00;;;;;;5380606;26;20461;-79
2024/04/08 12:16:18;;;;;;;13.40;3.27;;;31.60;25.40;;;;;;5370181;26;20785;-78
2024/04/08 12:18:44;;;;;;;15.33;3.70;;;31.60;25.20;;;;;;5387828;26;20455;-78
2024/04/08 12:21:10;;;;;;;13.93;3.23;;;31.50;25.70;;;;;;5378833;26;20324;-77
2024/04/08 12:23:36;;;;;;;13.03;3.10;;;31.40;26.10;;;;;;5379395;26;20276;-77
2024/04/08 12:26:02;;;;;;;11.40;3.70;;;31.40;26.20;;;;;;5383207;26;20472;-79
2024/04/08 12:28:28;;;;;;;15.33;3.67;;;31.30;26.70;;;;;;5395481;26;20993;-78
2024/04/08 12:30:53;;;;;;;13.03;3.30;;;31.40;26.50;;;;;;5370691;26;20290;-78
2024/04/08 12:33:20;;;;;;;13.60;4.27;;;31.50;25.90;;;;;;5381949;26;20246;-78
2024/04/08 12:35:46;;;;;;;14.37;3.80;;;31.50;26.50;;;;;;5389828;26;20404;-78
2024/04/08 12:38:13;;;;;;;13.77;3.60;;;31.50;26.30;;;;;;5379922;26;20470;-78